createdAt,value
2018-04-22T00:00:42.278Z,11.70
2018-04-22T00:03:09.887Z,11.90
2018-04-22T00:05:37.517Z,11.90
2018-04-22T00:08:05.118Z,12.47
2018-04-22T00:10:32.770Z,12.67
2018-04-22T00:13:00.374Z,13.27
2018-04-22T00:15:27.983Z,12.10
2018-04-22T00:17:56.375Z,12.00
2018-04-22T00:20:23.966Z,12.03
2018-04-22T00:22:51.598Z,11.10
2018-04-22T00:25:19.190Z,11.37
2018-04-22T00:27:46.827Z,10.60
2018-04-22T00:30:14.411Z,9.37
2018-04-22T00:32:42.043Z,11.87
2018-04-22T00:35:09.639Z,11.07
2018-04-22T00:37:37.267Z,12.03
2018-04-22T00:40:04.858Z,11.33
2018-04-22T00:42:32.525Z,11.83
2018-04-22T00:45:00.126Z,12.07
2018-04-22T00:47:28.487Z,11.30
2018-04-22T00:49:56.119Z,12.07
2018-04-22T00:52:23.780Z,13.37
2018-04-22T00:54:51.375Z,11.70
2018-04-22T00:57:18.970Z,12.03
2018-04-22T00:59:47.367Z,13.23
2018-04-22T01:02:14.961Z,12.40
2018-04-22T01:04:42.559Z,11.93
2018-04-22T01:07:10.214Z,11.57
2018-04-22T01:09:37.811Z,11.60
2018-04-22T01:12:05.459Z,11.30
2018-04-22T01:14:33.871Z,12.73
2018-04-22T01:17:01.470Z,12.33
2018-04-22T01:19:29.115Z,14.10
2018-04-22T01:21:56.713Z,11.90
2018-04-22T01:24:25.092Z,12.80
2018-04-22T01:26:53.492Z,14.77
2018-04-22T01:29:21.138Z,13.20
2018-04-22T01:31:49.503Z,13.43
2018-04-22T01:34:17.103Z,13.70
2018-04-22T01:36:44.731Z,13.00
2018-04-22T01:39:12.322Z,11.50
2018-04-22T01:41:39.966Z,13.60
2018-04-22T01:44:08.319Z,12.37
2018-04-22T01:46:35.955Z,13.17
2018-04-22T01:49:03.550Z,12.70
2018-04-22T01:51:31.189Z,13.53
2018-04-22T01:53:58.832Z,12.97
2018-04-22T01:56:26.428Z,12.07
2018-04-22T01:58:54.030Z,12.27
2018-04-22T02:01:21.719Z,12.87
2018-04-22T02:03:49.312Z,12.10
2018-04-22T02:06:16.963Z,13.60
2018-04-22T02:08:44.562Z,12.33
2018-04-22T02:11:12.959Z,12.10
2018-04-22T02:13:40.550Z,14.13
2018-04-22T02:16:08.180Z,15.90
2018-04-22T02:18:35.786Z,17.60
2018-04-22T02:21:03.420Z,18.30
2018-04-22T02:23:31.015Z,17.63
2018-04-22T02:25:58.654Z,16.83
2018-04-22T02:28:26.283Z,14.70
2018-04-22T02:30:53.879Z,16.30
2018-04-22T02:33:21.508Z,13.67
2018-04-22T02:35:49.114Z,13.17
2018-04-22T02:38:16.743Z,13.10
2018-04-22T02:40:44.334Z,12.30
2018-04-22T02:43:12.766Z,13.00
2018-04-22T02:45:40.374Z,12.53
2018-04-22T02:48:07.967Z,14.23
2018-04-22T02:50:35.603Z,13.97
2018-04-22T02:53:03.198Z,14.07
2018-04-22T02:55:31.608Z,13.87
2018-04-22T02:57:59.208Z,13.83
2018-04-22T03:00:26.811Z,12.30
2018-04-22T03:02:55.210Z,13.23
2018-04-22T03:05:22.806Z,12.63
2018-04-22T03:07:50.438Z,13.10
2018-04-22T03:10:18.035Z,13.10
2018-04-22T03:12:45.695Z,14.27
2018-04-22T03:15:13.336Z,12.63
2018-04-22T03:17:40.960Z,13.07
2018-04-22T03:20:09.360Z,13.37
2018-04-22T03:22:36.991Z,14.17
2018-04-22T03:25:05.414Z,13.70
2018-04-22T03:27:33.055Z,13.63
2018-04-22T03:30:00.651Z,12.63
2018-04-22T03:32:28.263Z,13.43
2018-04-22T03:34:56.694Z,14.07
2018-04-22T03:37:24.290Z,11.77
2018-04-22T03:39:51.882Z,13.50
2018-04-22T03:42:19.506Z,13.13
2018-04-22T03:44:47.101Z,13.80
2018-04-22T03:47:14.727Z,13.50
2018-04-22T03:49:42.333Z,12.57
2018-04-22T03:52:09.975Z,12.17
2018-04-22T03:54:38.367Z,13.37
2018-04-22T03:57:05.963Z,12.80
2018-04-22T03:59:33.586Z,12.60
2018-04-22T04:02:01.183Z,12.87
2018-04-22T04:04:28.814Z,13.53
2018-04-22T04:06:56.446Z,12.50
2018-04-22T04:09:24.040Z,12.33
2018-04-22T04:11:51.666Z,12.50
2018-04-22T04:14:19.262Z,12.73
2018-04-22T04:16:46.886Z,14.30
2018-04-22T04:19:26.343Z,13.07
2018-04-22T04:22:06.566Z,14.03
2018-04-22T04:24:47.059Z,14.43
2018-04-22T04:30:19.126Z,14.20
2018-04-22T04:32:46.867Z,15.40
2018-04-22T04:35:14.495Z,14.03
2018-04-22T04:37:42.114Z,12.80
2018-04-22T04:40:09.851Z,13.90
2018-04-22T04:42:37.427Z,13.27
2018-04-22T04:45:05.045Z,13.00
2018-04-22T04:47:32.682Z,13.60
2018-04-22T04:50:01.099Z,13.60
2018-04-22T04:52:28.695Z,13.23
2018-04-22T04:54:56.311Z,13.57
2018-04-22T04:57:23.943Z,13.37
2018-04-22T04:59:52.467Z,15.33
2018-04-22T05:02:20.103Z,16.10
2018-04-22T05:04:47.812Z,15.27
2018-04-22T05:07:15.438Z,13.37
2018-04-22T05:09:43.078Z,13.00
2018-04-22T05:12:11.475Z,14.50
2018-04-22T05:14:39.071Z,12.80
2018-04-22T05:17:06.719Z,14.30
2018-04-22T05:19:34.318Z,13.30
2018-04-22T05:22:01.927Z,15.30
2018-04-22T05:24:29.567Z,14.77
2018-04-22T05:26:57.930Z,13.90
2018-04-22T05:29:25.526Z,13.93
2018-04-22T05:31:53.150Z,14.67
2018-04-22T05:34:20.754Z,14.37
2018-04-22T05:36:48.399Z,14.97
2018-04-22T05:39:16.796Z,13.97
2018-04-22T05:41:44.445Z,15.10
2018-04-22T05:44:12.055Z,15.07
2018-04-22T05:46:39.652Z,14.87
2018-04-22T05:49:07.295Z,14.40
2018-04-22T05:51:34.891Z,14.43
2018-04-22T05:54:03.255Z,14.90
2018-04-22T05:56:31.651Z,14.70
2018-04-22T05:59:00.011Z,16.70
2018-04-22T06:01:27.674Z,16.03
2018-04-22T06:03:56.038Z,17.07
2018-04-22T06:06:24.443Z,18.70
2018-04-22T06:08:52.076Z,16.17
2018-04-22T06:11:19.693Z,16.43
2018-04-22T06:13:47.323Z,17.00
2018-04-22T06:16:14.937Z,16.70
2018-04-22T06:18:43.343Z,16.07
2018-04-22T06:21:10.951Z,17.37
2018-04-22T06:23:38.591Z,16.27
2018-04-22T06:26:06.183Z,17.93
2018-04-22T06:28:33.835Z,16.50
2018-04-22T06:31:01.435Z,16.97
2018-04-22T06:33:29.836Z,15.33
2018-04-22T06:35:57.464Z,15.53
2018-04-22T06:38:25.858Z,15.13
2018-04-22T06:40:54.254Z,14.90
2018-04-22T06:43:21.882Z,13.80
2018-04-22T06:45:50.297Z,15.90
2018-04-22T06:48:17.923Z,15.17
2018-04-22T06:50:46.324Z,15.03
2018-04-22T06:53:17.120Z,15.63
2018-04-22T06:55:44.926Z,15.50
2018-04-22T06:58:13.329Z,16.50
2018-04-22T07:00:40.927Z,15.70
2018-04-22T07:03:08.554Z,16.03
2018-04-22T07:05:36.191Z,14.67
2018-04-22T07:08:04.640Z,15.53
2018-04-22T07:10:32.213Z,16.23
2018-04-22T07:12:59.882Z,15.10
2018-04-22T07:15:28.243Z,17.87
2018-04-22T07:17:55.868Z,15.67
2018-04-22T07:20:23.460Z,15.50
2018-04-22T07:22:51.120Z,15.60
2018-04-22T07:25:18.710Z,16.10
2018-04-22T07:27:47.086Z,15.33
2018-04-22T07:30:15.479Z,15.10
2018-04-22T07:32:43.912Z,14.87
2018-04-22T07:35:11.539Z,14.27
2018-04-22T07:37:39.178Z,15.80
2018-04-22T07:40:07.711Z,14.97
2018-04-22T07:42:35.373Z,15.97
2018-04-22T07:45:02.973Z,15.10
2018-04-22T07:47:33.271Z,15.37
2018-04-22T07:50:01.302Z,12.47
2018-04-22T07:52:29.191Z,9.77
2018-04-22T07:54:56.822Z,11.43
2018-04-22T07:57:24.414Z,12.03
2018-04-22T07:59:52.007Z,12.50
2018-04-22T08:02:19.962Z,11.90
2018-04-22T08:04:47.603Z,12.03
2018-04-22T08:07:15.230Z,13.97
2018-04-22T08:09:43.594Z,13.47
2018-04-22T08:12:12.041Z,11.97
2018-04-22T08:14:39.709Z,11.30
2018-04-22T08:17:07.343Z,10.40
2018-04-22T08:19:35.008Z,12.20
2018-04-22T08:22:02.684Z,10.87
2018-04-22T08:24:30.314Z,11.40
2018-04-22T08:26:57.898Z,9.40
2018-04-22T08:29:25.709Z,9.20
2018-04-22T08:31:54.111Z,9.53
2018-04-22T08:34:22.518Z,8.70
2018-04-22T08:36:50.143Z,9.50
2018-04-22T08:39:18.655Z,8.27
2018-04-22T08:41:46.416Z,8.80
2018-04-22T08:44:14.104Z,9.13
2018-04-22T08:46:41.766Z,8.90
2018-04-22T08:49:09.363Z,8.73
2018-04-22T08:51:36.947Z,9.17
2018-04-22T08:54:05.583Z,8.00
2018-04-22T08:56:33.267Z,8.67
2018-04-22T08:59:01.803Z,8.03
2018-04-22T09:01:29.531Z,8.13
2018-04-22T09:03:57.940Z,7.63
2018-04-22T09:06:25.567Z,8.70
2018-04-22T09:08:53.218Z,8.63
2018-04-22T09:11:20.848Z,8.90
2018-04-22T09:13:48.451Z,8.47
2018-04-22T09:16:16.114Z,9.07
2018-04-22T09:18:43.755Z,8.57
2018-04-22T09:21:11.343Z,7.30
2018-04-22T09:23:39.703Z,8.63
2018-04-22T09:26:07.354Z,8.20
2018-04-22T09:28:34.983Z,8.17
2018-04-22T09:31:03.344Z,8.30
2018-04-22T09:33:30.979Z,8.43
2018-04-22T09:35:58.562Z,8.73
2018-04-22T09:38:26.178Z,8.67
2018-04-22T09:40:53.833Z,9.30
2018-04-22T09:43:21.484Z,7.90
2018-04-22T09:45:49.850Z,7.93
2018-04-22T09:48:18.262Z,8.20
2018-04-22T09:50:45.915Z,8.43
2018-04-22T09:53:13.507Z,8.43
2018-04-22T09:55:41.175Z,8.43
2018-04-22T09:58:08.794Z,7.43
2018-04-22T10:00:36.410Z,7.93
2018-04-22T10:03:06.854Z,6.80
2018-04-22T10:05:40.128Z,6.97
2018-04-22T10:08:07.751Z,6.10
2018-04-22T10:10:35.334Z,6.20
2018-04-22T10:13:02.959Z,6.37
2018-04-22T10:15:31.323Z,6.07
2018-04-22T10:17:59.746Z,6.10
2018-04-22T10:20:27.342Z,5.67
2018-04-22T10:22:54.955Z,6.23
2018-04-22T10:25:22.607Z,6.27
2018-04-22T10:27:50.256Z,5.57
2018-04-22T10:30:18.611Z,6.03
2018-04-22T10:32:46.247Z,5.87
2018-04-22T10:35:13.835Z,6.17
2018-04-22T10:37:41.417Z,5.83
2018-04-22T10:40:09.889Z,5.70
2018-04-22T10:42:37.463Z,6.33
2018-04-22T10:45:05.814Z,6.00
2018-04-22T10:47:33.439Z,5.87
2018-04-22T10:50:01.075Z,6.23
2018-04-22T10:52:34.338Z,6.53
2018-04-22T10:55:02.201Z,6.23
2018-04-22T10:57:29.836Z,6.43
2018-04-22T10:59:57.520Z,5.90
2018-04-22T11:02:25.142Z,5.80
2018-04-22T11:04:52.782Z,5.63
2018-04-22T11:07:20.436Z,6.13
2018-04-22T11:09:48.102Z,6.70
2018-04-22T11:12:15.698Z,5.90
2018-04-22T11:14:43.335Z,5.80
2018-04-22T11:17:11.008Z,6.47
2018-04-22T11:19:38.750Z,6.07
2018-04-22T11:22:06.361Z,6.47
2018-04-22T11:24:34.778Z,6.33
2018-04-22T11:27:02.394Z,5.70
2018-04-22T11:29:30.024Z,6.40
2018-04-22T11:31:57.610Z,5.93
2018-04-22T11:34:25.239Z,5.33
2018-04-22T11:36:52.866Z,6.87
2018-04-22T11:39:20.456Z,5.73
2018-04-22T11:41:48.087Z,6.40
2018-04-22T11:44:16.443Z,6.07
2018-04-22T11:46:44.078Z,6.03
2018-04-22T11:49:11.680Z,5.70
2018-04-22T11:51:39.310Z,5.50
2018-04-22T11:54:07.407Z,6.10
2018-04-22T11:56:35.246Z,6.57
2018-04-22T11:59:04.107Z,5.57
2018-04-22T12:01:31.960Z,5.40
2018-04-22T12:03:59.590Z,5.80
2018-04-22T12:06:27.391Z,4.80
2018-04-22T12:08:55.063Z,6.30
2018-04-22T12:11:22.653Z,5.23
2018-04-22T12:13:51.015Z,5.90
2018-04-22T12:16:18.641Z,5.43
2018-04-22T12:18:46.230Z,5.63
2018-04-22T12:21:14.622Z,5.30
2018-04-22T12:23:42.984Z,5.00
2018-04-22T12:26:11.390Z,5.33
2018-04-22T12:28:39.891Z,4.80
2018-04-22T12:31:07.526Z,6.23
2018-04-22T12:33:35.127Z,5.33
2018-04-22T12:36:02.767Z,4.83
2018-04-22T12:38:30.359Z,5.83
2018-04-22T12:40:58.038Z,4.97
2018-04-22T12:43:25.627Z,6.30
2018-04-22T12:45:53.979Z,5.50
2018-04-22T12:48:22.660Z,5.00
2018-04-22T12:50:52.411Z,4.73
2018-04-22T12:53:20.168Z,4.73
2018-04-22T12:55:47.771Z,6.27
2018-04-22T12:58:15.411Z,4.80
2018-04-22T13:00:43.047Z,5.17
2018-04-22T13:03:10.688Z,4.90
2018-04-22T13:05:38.352Z,5.70
2018-04-22T13:08:06.741Z,4.77
2018-04-22T13:10:35.104Z,4.80
2018-04-22T13:13:03.518Z,5.37
2018-04-22T13:15:31.159Z,5.20
2018-04-22T13:17:59.531Z,6.50
2018-04-22T13:20:27.925Z,5.83
2018-04-22T13:22:55.535Z,4.80
2018-04-22T13:25:23.179Z,4.93
2018-04-22T13:27:50.920Z,4.63
2018-04-22T13:30:18.502Z,5.43
2018-04-22T13:32:46.174Z,5.83
2018-04-22T13:35:13.766Z,5.50
2018-04-22T13:37:42.198Z,5.00
2018-04-22T13:40:09.844Z,5.57
2018-04-22T13:42:37.435Z,5.53
2018-04-22T13:45:05.066Z,4.70
2018-04-22T13:47:32.702Z,5.60
2018-04-22T13:50:00.319Z,5.30
2018-04-22T13:52:27.974Z,5.00
2018-04-22T13:54:55.614Z,5.10
2018-04-22T13:57:23.218Z,4.87
2018-04-22T13:59:50.810Z,6.10
2018-04-22T14:02:18.404Z,5.77
2018-04-22T14:04:46.027Z,7.87
2018-04-22T14:07:14.419Z,6.07
2018-04-22T14:09:42.027Z,5.20
2018-04-22T14:12:09.653Z,4.80
2018-04-22T14:14:37.274Z,4.90
2018-04-22T14:17:04.903Z,5.37
2018-04-22T14:19:32.526Z,4.80
2018-04-22T14:22:00.119Z,5.47
2018-04-22T14:24:27.739Z,5.67
2018-04-22T14:26:55.341Z,5.67
2018-04-22T14:29:22.961Z,6.07
2018-04-22T14:31:51.310Z,6.10
2018-04-22T14:34:18.932Z,4.93
2018-04-22T14:36:46.559Z,4.90
2018-04-22T14:39:14.911Z,5.03
2018-04-22T14:41:42.562Z,4.90
2018-04-22T14:44:22.088Z,4.53
2018-04-22T14:46:49.727Z,5.13
2018-04-22T14:49:17.317Z,6.27
2018-04-22T14:51:44.902Z,4.53
2018-04-22T14:54:12.532Z,5.37
2018-04-22T14:56:40.176Z,4.83
2018-04-22T14:59:07.803Z,3.90
2018-04-22T15:01:36.200Z,5.40
2018-04-22T15:04:03.823Z,5.93
2018-04-22T15:06:31.420Z,4.57
2018-04-22T15:08:59.047Z,5.33
2018-04-22T15:11:26.667Z,6.97
2018-04-22T15:13:54.306Z,5.83
2018-04-22T15:16:21.899Z,6.20
2018-04-22T15:18:49.491Z,5.70
2018-04-22T15:21:17.122Z,5.73
2018-04-22T15:23:44.710Z,5.53
2018-04-22T15:26:13.105Z,5.07
2018-04-22T15:28:40.723Z,5.10
2018-04-22T15:31:08.333Z,4.80
2018-04-22T15:33:35.991Z,4.77
2018-04-22T15:36:03.587Z,4.63
2018-04-22T15:38:31.215Z,4.80
2018-04-22T15:40:58.808Z,4.13
2018-04-22T15:43:26.439Z,5.40
2018-04-22T15:45:54.044Z,5.00
2018-04-22T15:48:21.670Z,4.30
2018-04-22T15:50:49.260Z,4.30
2018-04-22T15:53:16.887Z,4.20
2018-04-22T15:55:44.470Z,4.20
2018-04-22T15:58:12.243Z,4.40
2018-04-22T16:00:39.986Z,4.00
2018-04-22T16:03:07.606Z,3.70
2018-04-22T16:05:35.962Z,3.37
2018-04-22T16:08:03.608Z,3.83
2018-04-22T16:10:31.242Z,3.70
2018-04-22T16:12:58.913Z,4.10
2018-04-22T16:15:26.539Z,3.47
2018-04-22T16:17:54.890Z,3.93
2018-04-22T16:20:22.506Z,3.43
2018-04-22T16:22:50.086Z,4.17
2018-04-22T16:25:17.679Z,4.27
2018-04-22T16:27:45.330Z,3.73
2018-04-22T16:30:12.919Z,3.53
2018-04-22T16:32:41.277Z,3.70
2018-04-22T16:35:08.910Z,4.23
2018-04-22T16:37:36.499Z,3.93
2018-04-22T16:40:04.130Z,3.57
2018-04-22T16:42:31.711Z,4.27
2018-04-22T16:44:59.332Z,4.40
2018-04-22T16:47:26.920Z,5.13
2018-04-22T16:49:54.554Z,3.97
2018-04-22T16:52:22.138Z,3.93
2018-04-22T16:54:49.758Z,4.50
2018-04-22T16:57:18.119Z,4.13
2018-04-22T16:59:45.751Z,3.20
2018-04-22T17:02:13.338Z,3.73
2018-04-22T17:04:40.958Z,3.60
2018-04-22T17:07:08.585Z,3.77
2018-04-22T17:09:36.170Z,4.10
2018-04-22T17:12:03.799Z,3.00
2018-04-22T17:14:32.161Z,3.63
2018-04-22T17:16:59.792Z,3.23
2018-04-22T17:19:27.379Z,3.30
2018-04-22T17:21:55.001Z,3.70
2018-04-22T17:24:22.607Z,3.30
2018-04-22T17:26:50.251Z,3.20
2018-04-22T17:29:17.839Z,6.23
2018-04-22T17:31:46.200Z,3.00
2018-04-22T17:34:14.615Z,3.50
2018-04-22T17:36:42.223Z,2.97
2018-04-22T17:39:09.852Z,3.50
2018-04-22T17:41:37.442Z,3.17
2018-04-22T17:44:05.073Z,3.73
2018-04-22T17:46:32.654Z,3.27
2018-04-22T17:49:00.281Z,3.80
2018-04-22T17:51:27.872Z,3.27
2018-04-22T17:53:55.504Z,3.57
2018-04-22T17:56:23.870Z,3.40
2018-04-22T17:58:52.262Z,3.60
2018-04-22T18:01:20.618Z,3.40
2018-04-22T18:03:49.022Z,3.60
2018-04-22T18:06:16.647Z,3.83
2018-04-22T18:08:44.243Z,5.20
2018-04-22T18:11:12.646Z,3.93
2018-04-22T18:13:40.240Z,3.80
2018-04-22T18:16:07.830Z,4.67
2018-04-22T18:18:36.219Z,4.43
2018-04-22T18:21:04.579Z,4.00
2018-04-22T18:23:32.199Z,6.43
2018-04-22T18:25:59.790Z,4.70
2018-04-22T18:28:27.546Z,5.13
2018-04-22T18:30:55.138Z,4.93
2018-04-22T18:33:23.566Z,5.20
2018-04-22T18:35:51.170Z,6.10
2018-04-22T18:38:19.097Z,6.23
2018-04-22T18:40:46.770Z,6.20
2018-04-22T18:43:14.381Z,6.10
2018-04-22T18:45:42.744Z,6.23
2018-04-22T18:48:10.388Z,6.27
2018-04-22T18:50:37.973Z,8.23
2018-04-22T18:53:05.571Z,9.57
2018-04-22T18:55:33.279Z,9.03
2018-04-22T18:58:00.917Z,7.40
2018-04-22T19:00:28.559Z,6.40
2018-04-22T19:02:56.159Z,5.20
2018-04-22T19:05:23.754Z,5.53
2018-04-22T19:07:52.151Z,5.63
2018-04-22T19:10:19.744Z,5.20
2018-04-22T19:12:47.393Z,6.10
2018-04-22T19:15:14.995Z,5.60
2018-04-22T19:17:42.635Z,5.50
2018-04-22T19:20:10.991Z,5.57
2018-04-22T19:22:38.614Z,4.97
2018-04-22T19:25:06.235Z,5.80
2018-04-22T19:27:34.588Z,5.13
2018-04-22T19:30:02.239Z,5.13
2018-04-22T19:32:29.834Z,5.43
2018-04-22T19:34:57.474Z,5.37
2018-04-22T19:37:25.087Z,5.23
2018-04-22T19:39:52.710Z,5.07
2018-04-22T19:42:20.303Z,6.30
2018-04-22T19:44:47.928Z,5.70
2018-04-22T19:47:15.779Z,5.20
2018-04-22T19:49:43.436Z,6.10
2018-04-22T19:52:11.063Z,5.70
2018-04-22T19:54:38.673Z,7.23
2018-04-22T19:57:06.324Z,6.83
2018-04-22T19:59:33.916Z,7.20
2018-04-22T20:02:02.315Z,7.37
2018-04-22T20:04:30.671Z,7.50
2018-04-22T20:06:58.262Z,7.80
2018-04-22T20:09:25.919Z,8.13
2018-04-22T20:11:54.279Z,8.33
2018-04-22T20:14:21.900Z,8.23
2018-04-22T20:16:49.535Z,7.00
2018-04-22T20:19:17.147Z,6.87
2018-04-22T20:21:44.747Z,7.13
2018-04-22T20:24:12.375Z,6.93
2018-04-22T20:26:39.962Z,6.87
2018-04-22T20:29:07.608Z,7.20
2018-04-22T20:31:35.200Z,8.47
2018-04-22T20:34:02.795Z,9.73
2018-04-22T20:36:31.449Z,7.93
2018-04-22T20:38:59.038Z,7.30
2018-04-22T20:41:27.388Z,7.07
2018-04-22T20:43:55.014Z,6.60
2018-04-22T20:46:22.636Z,7.37
2018-04-22T20:48:50.991Z,8.10
2018-04-22T20:51:18.632Z,7.30
2018-04-22T20:53:46.238Z,7.27
2018-04-22T20:56:14.600Z,10.40
2018-04-22T20:58:42.235Z,11.07
2018-04-22T21:01:09.854Z,11.33
2018-04-22T21:03:37.447Z,12.37
2018-04-22T21:06:05.059Z,11.37
2018-04-22T21:08:33.462Z,11.03
2018-04-22T21:11:01.057Z,10.00
2018-04-22T21:13:28.651Z,10.67
2018-04-22T21:15:56.271Z,9.07
2018-04-22T21:18:23.908Z,9.63
2018-04-22T21:20:51.503Z,13.77
2018-04-22T21:23:19.099Z,11.17
2018-04-22T21:25:46.731Z,10.80
2018-04-22T21:28:14.354Z,9.87
2018-04-22T21:30:41.991Z,10.87
2018-04-22T21:33:09.619Z,10.53
2018-04-22T21:35:37.260Z,12.67
2018-04-22T21:38:04.855Z,10.50
2018-04-22T21:40:32.491Z,10.47
2018-04-22T21:43:00.088Z,12.97
2018-04-22T21:45:27.679Z,8.97
2018-04-22T21:47:55.373Z,9.00
2018-04-22T21:50:22.975Z,9.10
2018-04-22T21:52:50.621Z,9.53
2018-04-22T21:55:18.226Z,9.40
2018-04-22T21:57:45.818Z,8.27
2018-04-22T22:00:13.443Z,8.80
2018-04-22T22:02:41.866Z,8.50
2018-04-22T22:05:09.503Z,8.70
2018-04-22T22:07:37.131Z,9.00
2018-04-22T22:10:04.776Z,8.23
2018-04-22T22:12:32.415Z,7.67
2018-04-22T22:15:00.063Z,8.53
2018-04-22T22:17:27.648Z,8.97
2018-04-22T22:19:55.271Z,8.13
2018-04-22T22:22:22.870Z,7.57
2018-04-22T22:24:50.507Z,8.30
2018-04-22T22:27:18.134Z,8.00
2018-04-22T22:29:46.495Z,7.67
2018-04-22T22:32:14.118Z,8.10
2018-04-22T22:34:41.711Z,8.33
2018-04-22T22:37:09.340Z,8.27
2018-04-22T22:39:36.931Z,8.53
2018-04-22T22:42:04.551Z,8.13
2018-04-22T22:44:32.194Z,8.97
2018-04-22T22:47:00.551Z,9.20
2018-04-22T22:49:28.148Z,9.13
2018-04-22T22:51:55.774Z,8.37
2018-04-22T22:54:24.162Z,8.43
2018-04-22T22:56:52.519Z,8.00
2018-04-22T22:59:20.142Z,9.00
2018-04-22T23:01:47.750Z,8.70
2018-04-22T23:04:15.373Z,9.17
2018-04-22T23:06:42.960Z,9.93
2018-04-22T23:09:10.592Z,8.70
2018-04-22T23:11:38.214Z,9.03
2018-04-22T23:14:06.646Z,9.10
2018-04-22T23:16:34.282Z,8.37
2018-04-22T23:19:01.871Z,9.00
2018-04-22T23:21:29.458Z,8.80
2018-04-22T23:23:57.080Z,9.10
2018-04-22T23:26:24.714Z,8.80
2018-04-22T23:28:52.335Z,8.93
2018-04-22T23:31:19.980Z,8.87
2018-04-22T23:33:47.581Z,9.10
2018-04-22T23:36:15.186Z,9.40
2018-04-22T23:38:42.813Z,9.27
2018-04-22T23:41:10.408Z,8.90
2018-04-22T23:43:38.030Z,8.57
2018-04-22T23:46:05.620Z,8.73
2018-04-22T23:48:33.283Z,9.80
2018-04-22T23:51:00.889Z,9.97
2018-04-22T23:53:28.515Z,9.40
2018-04-22T23:55:56.103Z,9.20
2018-04-22T23:58:23.778Z,9.57
